createdAt,value
2022-08-27T00:00:37.033Z,87.09
2022-08-27T00:05:36.949Z,87.29
2022-08-27T00:10:36.892Z,87.29
2022-08-27T00:15:36.830Z,87.39
2022-08-27T00:20:36.762Z,87.29
2022-08-27T00:25:36.698Z,87.59
2022-08-27T00:30:36.629Z,87.68
2022-08-27T00:35:36.561Z,87.89
2022-08-27T00:40:36.553Z,88.09
2022-08-27T00:45:36.547Z,88.29
2022-08-27T00:50:36.373Z,88.48
2022-08-27T00:55:36.297Z,88.59
2022-08-27T01:00:36.298Z,88.69
2022-08-27T01:05:36.170Z,89.03
2022-08-27T01:10:36.113Z,89.03
2022-08-27T01:15:36.038Z,89.13
2022-08-27T01:20:35.977Z,89.13
2022-08-27T01:25:35.915Z,89.03
2022-08-27T01:30:35.872Z,89.13
2022-08-27T01:35:35.792Z,89.33
2022-08-27T01:40:35.785Z,89.43
2022-08-27T01:45:35.650Z,89.63
2022-08-27T01:50:35.585Z,89.73
2022-08-27T01:55:35.522Z,89.83
2022-08-27T02:00:35.486Z,89.93
2022-08-27T02:05:39.695Z,90.03
2022-08-27T02:10:35.321Z,89.93
2022-08-27T02:15:35.251Z,89.78
2022-08-27T02:20:35.193Z,89.93
2022-08-27T02:25:35.141Z,89.78
2022-08-27T02:30:35.067Z,89.69
2022-08-27T02:35:34.998Z,89.59
2022-08-27T02:40:35.051Z,89.59
2022-08-27T02:45:35.518Z,89.48
2022-08-27T02:50:34.796Z,89.28
2022-08-27T02:55:34.724Z,89.19
2022-08-27T03:00:34.692Z,89.09
2022-08-27T03:05:34.612Z,88.98
2022-08-27T03:10:34.538Z,89.09
2022-08-27T03:15:34.479Z,89.09
2022-08-27T03:20:34.399Z,88.98
2022-08-27T03:25:34.339Z,89.43
2022-08-27T03:30:34.274Z,89.83
2022-08-27T03:35:34.219Z,89.93
2022-08-27T03:40:34.203Z,89.93
2022-08-27T03:45:57.539Z,89.23
2022-08-27T03:50:35.032Z,89.07
2022-08-27T03:55:33.949Z,88.97
2022-08-27T04:00:33.882Z,88.73
2022-08-27T04:05:33.799Z,88.13
2022-08-27T04:10:35.014Z,87.82
2022-08-27T04:15:33.668Z,87.27
2022-08-27T04:20:35.463Z,86.97
2022-08-27T04:25:33.538Z,86.87
2022-08-27T04:30:33.488Z,86.87
2022-08-27T04:35:33.402Z,86.97
2022-08-27T04:40:33.411Z,87.27
2022-08-27T04:45:33.280Z,87.77
2022-08-27T04:50:33.229Z,87.77
2022-08-27T04:55:33.142Z,87.82
2022-08-27T05:00:33.087Z,87.93
2022-08-27T05:05:33.051Z,88.03
2022-08-27T05:10:32.974Z,87.93
2022-08-27T05:15:32.929Z,87.29
2022-08-27T05:20:32.832Z,87.09
2022-08-27T05:25:32.774Z,86.65
2022-08-27T05:30:32.762Z,86.54
2022-08-27T05:35:32.788Z,86.45
2022-08-27T05:40:32.916Z,86.54
2022-08-27T05:45:32.857Z,86.74
2022-08-27T05:50:32.439Z,86.95
2022-08-27T05:55:32.367Z,87.04
2022-08-27T06:00:32.322Z,87.15
2022-08-27T06:05:32.306Z,86.95
2022-08-27T06:10:32.179Z,86.84
2022-08-27T06:15:32.191Z,86.65
2022-08-27T06:20:32.051Z,86.74
2022-08-27T06:25:31.985Z,87.04
2022-08-27T06:30:31.919Z,87.15
2022-08-27T06:35:34.049Z,87.15
2022-08-27T06:40:31.826Z,87.34
2022-08-27T06:45:31.725Z,87.84
2022-08-27T06:50:31.659Z,88.14
2022-08-27T06:55:35.403Z,88.59
2022-08-27T07:00:31.540Z,88.98
2022-08-27T07:05:31.461Z,89.28
2022-08-27T07:10:31.389Z,89.69
2022-08-27T07:15:31.392Z,90.13
2022-08-27T07:20:31.267Z,89.93
2022-08-27T07:25:31.186Z,89.83
2022-08-27T07:30:31.206Z,89.78
2022-08-27T07:35:31.060Z,89.69
2022-08-27T07:40:31.034Z,89.59
2022-08-27T07:45:30.927Z,89.48
2022-08-27T07:50:30.867Z,89.28
2022-08-27T07:55:30.795Z,88.98
2022-08-27T08:00:30.741Z,88.44
2022-08-27T08:05:30.663Z,88.04
2022-08-27T08:10:34.988Z,87.95
2022-08-27T08:15:30.556Z,88.29
2022-08-27T08:20:54.287Z,88.59
2022-08-27T08:25:34.600Z,88.18
2022-08-27T08:30:31.301Z,87.95
2022-08-27T08:35:40.499Z,87.54
2022-08-27T08:40:30.252Z,87.30
2022-08-27T08:45:30.138Z,86.90
2022-08-27T08:50:30.089Z,86.70
2022-08-27T08:55:30.018Z,86.40
2022-08-27T09:00:29.948Z,86.06
2022-08-27T09:05:29.874Z,85.76
2022-08-27T09:10:29.829Z,85.46
2022-08-27T09:15:29.746Z,85.46
2022-08-27T09:20:29.697Z,85.26
2022-08-27T09:25:29.612Z,86.16
2022-08-27T09:30:30.929Z,87.54
2022-08-27T09:35:29.483Z,88.04
2022-08-27T09:40:29.536Z,88.25
2022-08-27T09:45:29.451Z,88.54
2022-08-27T09:50:29.307Z,88.34
2022-08-27T09:55:29.219Z,88.00
2022-08-27T10:00:29.163Z,87.00
2022-08-27T10:05:29.140Z,86.81
2022-08-27T10:10:29.041Z,86.81
2022-08-27T10:15:28.959Z,86.30
2022-08-27T10:20:30.565Z,85.71
2022-08-27T10:25:28.826Z,85.60
2022-08-27T10:30:28.779Z,85.80
2022-08-27T10:35:28.696Z,85.85
2022-08-27T10:40:28.696Z,86.04
2022-08-27T10:45:31.025Z,85.51
2022-08-27T10:50:28.508Z,85.10
2022-08-27T10:55:28.430Z,84.91
2022-08-27T11:00:28.389Z,84.50
2022-08-27T11:05:28.320Z,84.21
2022-08-27T11:10:28.254Z,83.56
2022-08-27T11:15:28.175Z,83.86
2022-08-27T11:20:28.113Z,83.86
2022-08-27T11:25:28.048Z,83.17
2022-08-27T11:30:27.991Z,83.07
2022-08-27T11:35:27.917Z,82.13
2022-08-27T11:40:27.990Z,81.19
2022-08-27T11:45:27.884Z,80.16
2022-08-27T11:50:27.922Z,79.72
2022-08-27T11:55:27.960Z,79.82
2022-08-27T12:00:27.947Z,79.52
2022-08-27T12:05:27.815Z,79.76
2022-08-27T12:10:27.903Z,79.76
2022-08-27T12:15:32.357Z,79.62
2022-08-27T12:20:27.327Z,78.79
2022-08-27T12:25:27.455Z,78.72
2022-08-27T12:30:27.195Z,78.43
2022-08-27T12:35:27.134Z,78.43
2022-08-27T12:40:27.136Z,78.43
2022-08-27T12:45:27.001Z,78.92
2022-08-27T12:50:26.946Z,78.72
2022-08-27T12:55:26.859Z,78.82
2022-08-27T13:00:27.060Z,78.43
2022-08-27T13:05:26.731Z,77.83
2022-08-27T13:10:26.670Z,77.72
2022-08-27T13:15:26.600Z,77.92
2022-08-27T13:20:26.546Z,78.02
2022-08-27T13:25:26.481Z,77.89
2022-08-27T13:30:35.816Z,77.72
2022-08-27T13:35:26.343Z,77.89
2022-08-27T13:40:26.342Z,77.69
2022-08-27T13:45:26.225Z,77.09
2022-08-27T13:50:26.169Z,75.72
2022-08-27T13:55:26.087Z,73.86
2022-08-27T14:00:26.045Z,72.80
2022-08-27T14:05:25.973Z,71.77
2022-08-27T14:10:25.918Z,70.25
2022-08-27T14:15:25.838Z,70.84
2022-08-27T14:20:25.786Z,70.05
2022-08-27T14:25:25.720Z,70.15
2022-08-27T14:30:29.858Z,70.28
2022-08-27T14:35:25.582Z,71.37
2022-08-27T14:40:25.727Z,70.97
2022-08-27T14:45:25.443Z,70.18
2022-08-27T14:50:25.383Z,70.81
2022-08-27T14:55:25.321Z,70.81
2022-08-27T15:00:25.250Z,70.94
2022-08-27T15:05:25.255Z,72.07
2022-08-27T15:10:25.137Z,71.81
2022-08-27T15:15:25.066Z,72.21
2022-08-27T15:20:24.990Z,72.30
2022-08-27T15:25:24.922Z,72.71
2022-08-27T15:30:24.876Z,71.51
2022-08-27T15:35:24.800Z,71.61
2022-08-27T15:40:24.812Z,72.24
2022-08-27T15:45:25.700Z,72.34
2022-08-27T15:50:24.641Z,72.68
2022-08-27T15:55:24.526Z,72.97
2022-08-27T16:00:24.470Z,73.51
2022-08-27T16:05:24.406Z,73.17
2022-08-27T16:10:24.353Z,72.97
2022-08-27T16:15:24.278Z,73.17
2022-08-27T16:20:24.227Z,73.47
2022-08-27T16:25:24.162Z,73.37
2022-08-27T16:30:24.096Z,73.47
2022-08-27T16:35:24.036Z,73.77
2022-08-27T16:40:24.095Z,73.80
2022-08-27T16:45:24.028Z,74.00
2022-08-27T16:50:26.228Z,74.00
2022-08-27T16:55:24.027Z,74.24
2022-08-27T17:00:23.986Z,74.84
2022-08-27T17:05:34.055Z,75.37
2022-08-27T17:10:23.783Z,75.90
2022-08-27T17:15:23.714Z,76.11
2022-08-27T17:20:23.481Z,76.30
2022-08-27T17:25:23.408Z,76.70
2022-08-27T17:30:23.342Z,77.00
2022-08-27T17:35:23.270Z,77.10
2022-08-27T17:40:23.300Z,77.10
2022-08-27T17:45:23.149Z,77.74
2022-08-27T17:50:23.095Z,77.64
2022-08-27T17:55:23.006Z,77.94
2022-08-27T18:00:22.958Z,78.57
2022-08-27T18:05:22.998Z,79.07
2022-08-27T18:10:22.830Z,79.27
2022-08-27T18:15:22.756Z,79.41
2022-08-27T18:20:22.700Z,79.51
2022-08-27T18:25:22.614Z,79.41
2022-08-27T18:30:22.559Z,79.61
2022-08-27T18:35:22.664Z,79.75
2022-08-27T18:40:22.559Z,80.05
2022-08-27T18:45:22.355Z,80.15
2022-08-27T18:50:22.308Z,80.25
2022-08-27T18:55:22.222Z,80.15
2022-08-27T19:00:22.175Z,80.15
2022-08-27T19:05:22.090Z,80.15
2022-08-27T19:10:22.031Z,80.35
2022-08-27T19:15:21.968Z,80.29
2022-08-27T19:20:21.914Z,80.38
2022-08-27T19:25:21.831Z,80.29
2022-08-27T19:30:21.781Z,80.29
2022-08-27T19:35:21.699Z,80.49
2022-08-27T19:40:21.999Z,80.49
2022-08-27T19:45:25.275Z,80.49
2022-08-27T19:50:21.521Z,80.68
2022-08-27T19:55:21.446Z,80.59
2022-08-27T20:00:21.374Z,80.79
2022-08-27T20:05:21.374Z,80.68
2022-08-27T20:10:21.622Z,80.79
2022-08-27T20:15:21.183Z,80.82
2022-08-27T20:20:21.115Z,80.82
2022-08-27T20:25:21.042Z,80.79
2022-08-27T20:30:20.983Z,80.62
2022-08-27T20:35:20.924Z,80.62
2022-08-27T20:40:20.893Z,80.23
2022-08-27T20:45:20.839Z,80.32
2022-08-27T20:50:20.726Z,80.02
2022-08-27T20:55:20.650Z,79.73
2022-08-27T21:00:20.605Z,79.62
2022-08-27T21:05:20.522Z,79.43
2022-08-27T21:10:20.467Z,79.22
2022-08-27T21:15:20.406Z,79.22
2022-08-27T21:20:20.355Z,79.22
2022-08-27T21:25:20.261Z,79.12
2022-08-27T21:30:20.211Z,79.02
2022-08-27T21:35:20.134Z,79.02
2022-08-27T21:40:20.180Z,78.96
2022-08-27T21:45:20.005Z,78.86
2022-08-27T21:50:19.946Z,79.06
2022-08-27T21:55:19.874Z,79.16
2022-08-27T22:00:19.833Z,79.16
2022-08-27T22:05:19.748Z,79.06
2022-08-27T22:10:19.687Z,78.96
2022-08-27T22:15:19.628Z,78.86
2022-08-27T22:20:19.559Z,78.90
2022-08-27T22:25:19.486Z,78.70
2022-08-27T22:30:19.427Z,78.90
2022-08-27T22:35:19.363Z,78.70
2022-08-27T22:40:20.208Z,78.70
2022-08-27T22:45:19.226Z,78.70
2022-08-27T22:50:19.175Z,78.70
2022-08-27T22:55:19.108Z,78.40
2022-08-27T23:00:19.053Z,78.40
2022-08-27T23:05:19.081Z,78.60
2022-08-27T23:10:18.925Z,78.70
2022-08-27T23:15:18.841Z,78.64
2022-08-27T23:20:18.784Z,78.44
2022-08-27T23:25:18.711Z,78.24
2022-08-27T23:30:18.654Z,78.13
2022-08-27T23:35:18.583Z,78.44
2022-08-27T23:40:18.641Z,78.24
2022-08-27T23:45:18.473Z,77.74
2022-08-27T23:50:18.399Z,77.37
2022-08-27T23:55:18.324Z,77.27
